createdAt,value
2023-02-07T00:01:47.688Z,19.73
2023-02-07T00:04:17.542Z,22.02
2023-02-07T00:06:48.591Z,20.88
2023-02-07T00:09:19.146Z,24.30
2023-02-07T00:11:51.240Z,21.10
2023-02-07T00:14:21.806Z,25.02
2023-02-07T00:16:52.334Z,26.70
2023-02-07T00:19:22.009Z,22.30
2023-02-07T00:21:52.045Z,23.40
2023-02-07T00:24:22.575Z,26.52
2023-02-07T00:26:55.785Z,24.30
2023-02-07T00:29:26.126Z,21.13
2023-02-07T00:31:57.139Z,18.15
2023-02-07T00:34:27.500Z,22.73
2023-02-07T00:36:59.088Z,22.63
2023-02-07T00:39:29.506Z,20.77
2023-02-07T00:42:02.011Z,17.70
2023-02-07T00:44:33.794Z,20.38
2023-02-07T00:47:04.471Z,16.48
2023-02-07T00:49:35.220Z,17.83
2023-02-07T00:52:06.193Z,22.58
2023-02-07T00:54:36.926Z,18.60
2023-02-07T00:57:09.119Z,20.63
2023-02-07T00:59:39.540Z,18.38
2023-02-07T01:02:09.656Z,16.23
2023-02-07T01:04:39.642Z,18.55
2023-02-07T01:07:13.896Z,19.77
2023-02-07T01:09:48.157Z,15.50
2023-02-07T01:12:26.223Z,19.60
2023-02-07T01:14:58.021Z,15.13
2023-02-07T01:17:29.230Z,19.40
2023-02-07T01:20:00.001Z,19.95
2023-02-07T01:22:30.547Z,16.80
2023-02-07T01:25:01.822Z,20.90
2023-02-07T01:27:33.401Z,18.98
2023-02-07T01:30:03.858Z,17.38
2023-02-07T01:32:35.661Z,22.88
2023-02-07T01:35:06.205Z,16.27
2023-02-07T01:37:36.952Z,17.65
2023-02-07T01:40:07.159Z,17.98
2023-02-07T01:42:39.281Z,16.33
2023-02-07T01:45:23.664Z,19.38
2023-02-07T01:47:55.334Z,18.67
2023-02-07T01:50:26.571Z,19.23
2023-02-07T01:52:57.920Z,15.65
2023-02-07T01:55:32.241Z,22.15
2023-02-07T01:58:06.994Z,19.25
2023-02-07T02:00:39.512Z,21.60
2023-02-07T02:03:09.289Z,18.77
2023-02-07T02:05:40.746Z,18.50
2023-02-07T02:08:11.114Z,20.17
2023-02-07T02:10:56.009Z,21.42
2023-02-07T02:13:34.649Z,17.65
2023-02-07T02:16:10.643Z,20.67
2023-02-07T02:19:11.493Z,15.40
2023-02-07T02:22:13.924Z,17.67
2023-02-07T02:25:08.880Z,26.88
2023-02-07T02:27:58.501Z,22.27
2023-02-07T02:31:04.523Z,18.65
2023-02-07T02:33:45.626Z,20.70
2023-02-07T02:36:24.415Z,17.77
2023-02-07T02:39:00.112Z,20.42
2023-02-07T02:41:33.072Z,21.95
2023-02-07T02:44:09.433Z,20.83
2023-02-07T02:46:43.784Z,21.05
2023-02-07T02:49:17.137Z,19.13
2023-02-07T02:51:47.435Z,20.92
2023-02-07T02:54:32.597Z,21.88
2023-02-07T02:57:34.815Z,15.05
2023-02-07T03:00:26.840Z,20.27
2023-02-07T03:03:09.055Z,22.48
2023-02-07T03:05:49.010Z,26.60
2023-02-07T03:08:29.256Z,22.38
2023-02-07T03:11:06.448Z,18.00
2023-02-07T03:13:43.216Z,17.33
2023-02-07T03:16:17.994Z,20.38
2023-02-07T03:18:54.741Z,17.80
2023-02-07T03:21:30.565Z,18.70
2023-02-07T03:24:04.260Z,18.98
2023-02-07T03:26:36.085Z,18.83
2023-02-07T03:29:09.215Z,21.25
2023-02-07T03:31:42.303Z,21.73
2023-02-07T03:34:15.761Z,18.65
2023-02-07T03:36:51.722Z,21.48
2023-02-07T03:39:23.002Z,21.60
2023-02-07T03:41:57.120Z,17.73
2023-02-07T03:44:30.194Z,15.77
2023-02-07T03:47:03.083Z,19.35
2023-02-07T03:49:33.018Z,18.88
2023-02-07T03:52:04.583Z,18.33
2023-02-07T03:54:35.323Z,18.45
2023-02-07T03:57:06.071Z,19.80
2023-02-07T03:59:36.857Z,20.75
2023-02-07T04:02:06.917Z,19.45
2023-02-07T04:04:39.905Z,19.27
2023-02-07T04:07:13.071Z,18.45
2023-02-07T04:09:43.329Z,17.27
2023-02-07T04:12:14.588Z,18.15
2023-02-07T04:14:45.321Z,17.75
2023-02-07T04:17:15.649Z,22.15
2023-02-07T04:19:46.764Z,15.77
2023-02-07T04:22:18.844Z,19.45
2023-02-07T04:24:49.439Z,18.05
2023-02-07T04:27:19.806Z,16.75
2023-02-07T04:29:50.881Z,26.35
2023-02-07T04:32:21.161Z,25.38
2023-02-07T04:34:52.626Z,23.77
2023-02-07T04:37:23.896Z,23.40
2023-02-07T04:39:54.252Z,25.20
2023-02-07T04:42:24.830Z,26.02
2023-02-07T04:44:55.087Z,25.15
2023-02-07T04:47:25.804Z,18.67
2023-02-07T04:49:58.189Z,21.80
2023-02-07T04:52:29.842Z,22.02
2023-02-07T04:55:00.213Z,17.92
2023-02-07T04:57:29.823Z,20.40
2023-02-07T04:59:59.760Z,16.48
2023-02-07T05:02:30.504Z,20.58
2023-02-07T05:05:02.093Z,17.65
2023-02-07T05:07:34.825Z,24.23
2023-02-07T05:10:05.601Z,17.67
2023-02-07T05:12:35.869Z,22.55
2023-02-07T05:15:05.623Z,18.42
2023-02-07T05:17:36.744Z,20.10
2023-02-07T05:20:07.577Z,17.70
2023-02-07T05:22:39.982Z,24.23
2023-02-07T05:25:10.646Z,19.35
2023-02-07T05:27:43.162Z,17.58
2023-02-07T05:30:15.571Z,15.98
2023-02-07T05:33:03.290Z,20.88
2023-02-07T05:35:34.657Z,20.73
2023-02-07T05:38:09.016Z,25.77
2023-02-07T05:40:40.883Z,21.42
2023-02-07T05:43:11.805Z,24.05
2023-02-07T05:45:42.079Z,23.85
2023-02-07T05:48:12.772Z,21.65
2023-02-07T05:50:43.782Z,22.42
2023-02-07T05:53:16.233Z,24.13
2023-02-07T05:55:47.014Z,23.60
2023-02-07T05:58:17.081Z,24.45
2023-02-07T06:00:49.154Z,26.25
2023-02-07T06:03:19.535Z,24.80
2023-02-07T06:05:50.198Z,18.83
2023-02-07T06:08:22.383Z,18.73
2023-02-07T06:10:53.456Z,22.27
2023-02-07T06:13:23.856Z,24.10
2023-02-07T06:15:54.257Z,31.70
2023-02-07T06:18:25.139Z,28.08
2023-02-07T06:20:55.777Z,20.17
2023-02-07T06:23:28.516Z,16.90
2023-02-07T06:25:58.421Z,16.35
2023-02-07T06:28:28.668Z,17.77
2023-02-07T06:30:58.547Z,15.13
2023-02-07T06:33:28.838Z,16.38
2023-02-07T06:35:59.626Z,18.75
2023-02-07T06:38:32.326Z,15.45
2023-02-07T06:41:02.576Z,18.63
2023-02-07T06:43:33.406Z,18.33
2023-02-07T06:46:10.976Z,18.65
2023-02-07T06:48:46.326Z,14.77
2023-02-07T06:51:16.115Z,19.40
2023-02-07T06:53:47.932Z,22.42
2023-02-07T06:56:18.786Z,14.93
2023-02-07T06:58:49.610Z,15.60
2023-02-07T07:01:23.218Z,14.63
2023-02-07T07:03:54.581Z,16.33
2023-02-07T07:06:24.920Z,16.20
2023-02-07T07:08:57.227Z,11.68
2023-02-07T07:11:27.829Z,10.07
2023-02-07T07:13:57.608Z,12.02
2023-02-07T07:16:27.690Z,12.57
2023-02-07T07:18:57.711Z,11.40
2023-02-07T07:21:28.964Z,11.68
2023-02-07T07:24:01.805Z,19.30
2023-02-07T07:26:47.037Z,11.50
2023-02-07T07:29:20.091Z,15.13
2023-02-07T07:31:50.129Z,16.05
2023-02-07T07:34:20.197Z,9.02
2023-02-07T07:36:50.837Z,16.77
2023-02-07T07:39:22.460Z,17.10
2023-02-07T07:41:53.121Z,10.10
2023-02-07T07:44:23.954Z,10.02
2023-02-07T07:46:54.503Z,13.32
2023-02-07T07:49:26.067Z,12.85
2023-02-07T07:52:00.810Z,10.00
2023-02-07T07:54:43.995Z,13.75
2023-02-07T07:57:15.396Z,9.88
2023-02-07T07:59:45.739Z,12.27
2023-02-07T08:02:16.538Z,15.27
2023-02-07T08:04:46.898Z,10.73
2023-02-07T08:07:17.693Z,10.02
2023-02-07T08:09:49.102Z,18.77
2023-02-07T08:12:19.495Z,14.90
2023-02-07T08:14:49.623Z,12.07
2023-02-07T08:17:19.833Z,14.30
2023-02-07T08:19:50.612Z,13.40
2023-02-07T08:22:21.228Z,14.27
2023-02-07T08:24:52.784Z,10.77
2023-02-07T08:27:22.959Z,17.30
2023-02-07T08:29:52.620Z,10.45
2023-02-07T08:32:23.141Z,12.85
2023-02-07T08:34:54.054Z,9.30
2023-02-07T08:37:24.462Z,14.07
2023-02-07T08:39:56.286Z,12.82
2023-02-07T08:42:26.770Z,12.75
2023-02-07T08:44:57.180Z,15.05
2023-02-07T08:47:27.655Z,11.60
2023-02-07T08:49:58.020Z,11.70
2023-02-07T08:52:29.034Z,14.88
2023-02-07T08:55:00.960Z,12.38
2023-02-07T08:57:31.346Z,14.30
2023-02-07T09:00:01.471Z,10.52
2023-02-07T09:02:31.759Z,12.32
2023-02-07T09:05:02.206Z,13.05
2023-02-07T09:07:32.554Z,19.08
2023-02-07T09:10:06.915Z,13.90
2023-02-07T09:12:38.641Z,15.15
2023-02-07T09:15:10.438Z,16.80
2023-02-07T09:17:40.752Z,13.77
2023-02-07T09:20:12.551Z,15.70
2023-02-07T09:22:56.596Z,11.77
2023-02-07T09:25:29.197Z,11.63
2023-02-07T09:28:00.252Z,16.73
2023-02-07T09:30:30.052Z,18.77
2023-02-07T09:33:00.520Z,13.23
2023-02-07T09:35:31.206Z,11.80
2023-02-07T09:38:00.920Z,14.90
2023-02-07T09:40:35.666Z,17.87
2023-02-07T09:43:13.034Z,16.23
2023-02-07T09:45:46.517Z,13.70
2023-02-07T09:48:22.266Z,14.37
2023-02-07T09:50:55.271Z,15.88
2023-02-07T09:53:28.567Z,18.48
2023-02-07T09:56:02.822Z,14.07
2023-02-07T09:58:39.231Z,18.17
2023-02-07T10:01:18.032Z,20.73
2023-02-07T10:03:56.978Z,20.50
2023-02-07T10:06:30.681Z,19.17
2023-02-07T10:09:03.215Z,17.05
2023-02-07T10:11:43.335Z,22.38
2023-02-07T10:14:33.245Z,19.50
2023-02-07T10:17:31.119Z,21.33
2023-02-07T10:20:26.655Z,16.93
2023-02-07T10:23:03.691Z,19.17
2023-02-07T10:25:38.302Z,21.43
2023-02-07T10:28:34.913Z,15.33
2023-02-07T10:31:11.368Z,20.27
2023-02-07T10:33:46.009Z,17.60
2023-02-07T10:36:18.623Z,20.57
2023-02-07T10:39:06.959Z,16.60
2023-02-07T10:41:40.584Z,18.30
2023-02-07T10:44:16.399Z,14.80
2023-02-07T10:46:50.280Z,21.63
2023-02-07T10:49:25.503Z,19.43
2023-02-07T10:51:59.051Z,17.53
2023-02-07T10:54:30.282Z,17.23
2023-02-07T10:57:03.164Z,20.20
2023-02-07T10:59:56.139Z,15.80
2023-02-07T11:02:45.582Z,16.10
2023-02-07T11:05:40.829Z,18.23
2023-02-07T11:08:24.361Z,15.90
2023-02-07T11:10:59.789Z,19.77
2023-02-07T11:13:33.117Z,18.33
2023-02-07T11:16:07.628Z,24.60
2023-02-07T11:18:45.643Z,19.30
2023-02-07T11:21:37.503Z,16.60
2023-02-07T11:24:09.613Z,17.93
2023-02-07T11:26:57.791Z,19.30
2023-02-07T11:29:28.630Z,16.40
2023-02-07T11:32:02.045Z,15.73
2023-02-07T11:34:46.048Z,16.97
2023-02-07T11:37:26.256Z,17.40
2023-02-07T11:40:02.249Z,14.20
2023-02-07T11:42:34.213Z,13.10
2023-02-07T11:45:07.295Z,15.30
2023-02-07T11:47:40.132Z,23.10
2023-02-07T11:50:13.880Z,18.27
2023-02-07T11:52:54.484Z,17.10
2023-02-07T11:55:26.923Z,16.03
2023-02-07T11:57:59.809Z,14.70
2023-02-07T12:00:30.915Z,17.23
2023-02-07T12:03:09.321Z,13.10
2023-02-07T12:05:42.770Z,12.63
2023-02-07T12:08:17.497Z,11.77
2023-02-07T12:10:50.644Z,18.70
2023-02-07T12:13:24.671Z,10.60
2023-02-07T12:15:58.121Z,9.70
2023-02-07T12:18:33.662Z,20.37
2023-02-07T12:21:09.782Z,12.57
2023-02-07T12:23:44.043Z,10.87
2023-02-07T12:26:24.633Z,12.80
2023-02-07T12:29:22.270Z,11.87
2023-02-07T12:32:00.821Z,13.47
2023-02-07T12:34:36.138Z,11.07
2023-02-07T12:37:12.734Z,10.47
2023-02-07T12:39:48.512Z,13.20
2023-02-07T12:42:32.204Z,12.57
2023-02-07T12:45:04.530Z,13.70
2023-02-07T12:47:46.845Z,11.30
2023-02-07T12:50:50.259Z,12.40
2023-02-07T12:53:33.796Z,11.23
2023-02-07T12:56:13.833Z,11.60
2023-02-07T12:58:54.709Z,11.20
2023-02-07T13:01:33.533Z,16.43
2023-02-07T13:04:36.314Z,12.67
2023-02-07T13:07:17.212Z,12.87
2023-02-07T13:09:50.913Z,11.70
2023-02-07T13:12:24.626Z,11.23
2023-02-07T13:15:03.921Z,12.47
2023-02-07T13:17:43.577Z,10.07
2023-02-07T13:20:26.088Z,10.90
2023-02-07T13:23:00.948Z,14.00
2023-02-07T13:25:34.064Z,12.73
2023-02-07T13:28:08.975Z,10.60
2023-02-07T13:30:40.678Z,10.13
2023-02-07T13:33:30.373Z,10.80
2023-02-07T13:36:08.000Z,10.77
2023-02-07T13:39:12.470Z,10.77
2023-02-07T13:41:53.589Z,10.13
2023-02-07T13:44:33.974Z,9.70
2023-02-07T13:47:38.838Z,12.07
2023-02-07T13:50:17.986Z,11.40
2023-02-07T13:52:55.481Z,9.70
2023-02-07T13:55:34.641Z,11.23
2023-02-07T13:58:21.905Z,10.63
2023-02-07T14:01:11.168Z,9.87
2023-02-07T14:03:41.679Z,10.50
2023-02-07T14:06:29.970Z,13.60
2023-02-07T14:09:03.402Z,13.37
2023-02-07T14:11:39.413Z,11.40
2023-02-07T14:14:25.436Z,11.33
2023-02-07T14:16:56.729Z,13.33
2023-02-07T14:19:50.186Z,13.60
2023-02-07T14:22:22.776Z,13.37
2023-02-07T14:25:19.638Z,16.30
2023-02-07T14:28:25.686Z,12.23
2023-02-07T14:31:23.710Z,13.03
2023-02-07T14:34:18.084Z,13.80
2023-02-07T14:36:48.649Z,12.50
2023-02-07T14:39:32.770Z,15.53
2023-02-07T14:42:15.290Z,13.07
2023-02-07T14:44:48.340Z,12.83
2023-02-07T14:47:37.223Z,17.43
2023-02-07T14:50:09.807Z,13.77
2023-02-07T14:52:41.637Z,14.00
2023-02-07T14:55:18.765Z,13.00
2023-02-07T14:57:55.255Z,15.93
2023-02-07T15:00:31.771Z,13.27
2023-02-07T15:03:14.399Z,13.90
2023-02-07T15:05:53.044Z,14.63
2023-02-07T15:08:24.892Z,15.83
2023-02-07T15:10:58.863Z,12.60
2023-02-07T15:13:31.558Z,15.77
2023-02-07T15:16:03.928Z,11.37
2023-02-07T15:18:38.031Z,14.40
2023-02-07T15:21:08.696Z,17.17
2023-02-07T15:23:39.830Z,14.80
2023-02-07T15:26:11.616Z,14.90
2023-02-07T15:28:42.177Z,13.97
2023-02-07T15:31:17.393Z,13.37
2023-02-07T15:33:56.548Z,14.10
2023-02-07T15:36:32.745Z,13.70
2023-02-07T15:39:05.832Z,14.57
2023-02-07T15:41:37.929Z,18.50
2023-02-07T15:44:10.385Z,14.23
2023-02-07T15:46:49.355Z,13.40
2023-02-07T15:49:34.601Z,15.00
2023-02-07T15:52:19.468Z,15.80
2023-02-07T15:54:52.092Z,15.47
2023-02-07T15:57:27.115Z,14.20
2023-02-07T16:00:03.955Z,15.10
2023-02-07T16:02:36.215Z,18.60
2023-02-07T16:05:13.654Z,18.73
2023-02-07T16:07:49.298Z,18.40
2023-02-07T16:10:34.822Z,18.60
2023-02-07T16:13:12.597Z,15.00
2023-02-07T16:15:57.703Z,18.30
2023-02-07T16:18:56.927Z,16.53
2023-02-07T16:21:32.254Z,18.33
2023-02-07T16:24:08.425Z,17.60
2023-02-07T16:26:39.550Z,22.13
2023-02-07T16:29:10.692Z,17.57
2023-02-07T16:31:43.990Z,20.70
2023-02-07T16:34:15.661Z,18.23
2023-02-07T16:36:53.722Z,23.17
2023-02-07T16:39:26.173Z,24.30
2023-02-07T16:42:11.679Z,33.83
2023-02-07T16:44:52.928Z,33.47
2023-02-07T16:47:23.861Z,29.20
2023-02-07T16:49:54.752Z,37.67
2023-02-07T16:52:27.137Z,40.87
2023-02-07T16:54:57.865Z,41.20
2023-02-07T16:57:29.102Z,38.70
2023-02-07T17:00:05.439Z,40.57
2023-02-07T17:02:37.553Z,36.00
2023-02-07T17:05:10.439Z,38.63
2023-02-07T17:07:42.666Z,41.53
2023-02-07T17:10:21.418Z,37.33
2023-02-07T17:12:52.111Z,44.90
2023-02-07T17:15:25.077Z,36.67
2023-02-07T17:17:55.860Z,35.90
2023-02-07T17:20:29.819Z,34.30
2023-02-07T17:23:01.885Z,45.20
2023-02-07T17:25:34.627Z,34.80
2023-02-07T17:28:05.565Z,31.30
2023-02-07T17:30:41.035Z,34.70
2023-02-07T17:33:12.390Z,33.30
2023-02-07T17:35:42.792Z,30.97
2023-02-07T17:38:14.921Z,28.93
2023-02-07T17:40:46.022Z,31.40
2023-02-07T17:43:16.781Z,30.00
2023-02-07T17:45:47.510Z,37.10
2023-02-07T17:48:18.185Z,38.47
2023-02-07T17:50:50.374Z,41.67
2023-02-07T17:53:24.024Z,47.17
2023-02-07T17:55:54.667Z,41.77
2023-02-07T17:58:25.214Z,39.53
2023-02-07T18:00:55.930Z,41.90
2023-02-07T18:03:26.646Z,38.03
2023-02-07T18:05:58.350Z,36.13
2023-02-07T18:08:32.538Z,32.67
2023-02-07T18:11:06.776Z,31.67
2023-02-07T18:13:37.280Z,35.13
2023-02-07T18:16:11.530Z,35.43
2023-02-07T18:18:41.500Z,33.83
2023-02-07T18:21:15.211Z,35.87
2023-02-07T18:23:48.059Z,34.30
2023-02-07T18:26:19.617Z,39.47
2023-02-07T18:28:50.358Z,32.73
2023-02-07T18:31:22.757Z,31.33
2023-02-07T18:33:53.840Z,35.33
2023-02-07T18:36:26.958Z,32.00
2023-02-07T18:39:00.820Z,35.50
2023-02-07T18:41:31.560Z,31.13
2023-02-07T18:44:03.019Z,35.13
2023-02-07T18:46:33.949Z,30.30
2023-02-07T18:49:04.101Z,33.95
2023-02-07T18:51:35.170Z,36.47
2023-02-07T18:54:07.635Z,29.00
2023-02-07T18:56:38.054Z,25.37
2023-02-07T18:59:09.758Z,28.20
2023-02-07T19:01:39.482Z,26.20
2023-02-07T19:04:09.951Z,24.83
2023-02-07T19:06:46.330Z,26.17
2023-02-07T19:09:18.950Z,30.90
2023-02-07T19:11:52.675Z,23.93
2023-02-07T19:14:25.630Z,29.50
2023-02-07T19:16:56.656Z,22.93
2023-02-07T19:19:30.275Z,25.13
2023-02-07T19:22:00.865Z,22.13
2023-02-07T19:24:33.444Z,23.80
2023-02-07T19:27:05.710Z,21.87
2023-02-07T19:29:42.887Z,23.48
2023-02-07T19:32:16.276Z,23.17
2023-02-07T19:34:50.528Z,25.40
2023-02-07T19:37:23.440Z,26.97
2023-02-07T19:39:57.880Z,31.33
2023-02-07T19:42:29.226Z,32.22
2023-02-07T19:45:00.165Z,32.03
2023-02-07T19:47:31.256Z,30.67
2023-02-07T19:50:16.849Z,32.67
2023-02-07T19:52:47.766Z,30.10
2023-02-07T19:55:21.226Z,27.13
2023-02-07T19:57:53.107Z,26.30
2023-02-07T20:00:23.574Z,29.40
2023-02-07T20:02:57.039Z,26.00
2023-02-07T20:05:27.246Z,24.13
2023-02-07T20:07:58.084Z,25.30
2023-02-07T20:10:30.351Z,28.10
2023-02-07T20:13:01.221Z,27.67
2023-02-07T20:15:47.471Z,25.33
2023-02-07T20:18:22.711Z,31.83
2023-02-07T20:20:55.782Z,24.50
2023-02-07T20:23:31.395Z,27.93
2023-02-07T20:26:08.614Z,26.00
2023-02-07T20:28:39.686Z,30.63
2023-02-07T20:31:12.150Z,31.27
2023-02-07T20:33:44.729Z,33.93
2023-02-07T20:36:17.124Z,28.83
2023-02-07T20:38:49.751Z,28.83
2023-02-07T20:41:30.825Z,26.67
2023-02-07T20:44:05.112Z,32.33
2023-02-07T20:46:37.877Z,24.25
2023-02-07T20:49:09.952Z,30.43
2023-02-07T20:51:42.867Z,31.13
2023-02-07T20:54:14.007Z,33.87
2023-02-07T20:56:46.004Z,32.60
2023-02-07T20:59:21.287Z,35.67
2023-02-07T21:01:51.675Z,38.60
2023-02-07T21:04:21.745Z,44.93
2023-02-07T21:06:53.961Z,50.00
2023-02-07T21:09:23.834Z,51.83
2023-02-07T21:11:56.688Z,59.60
2023-02-07T21:14:28.630Z,63.40
2023-02-07T21:17:02.352Z,59.00
2023-02-07T21:19:32.284Z,65.37
2023-02-07T21:22:02.766Z,59.13
2023-02-07T21:24:33.490Z,62.53
2023-02-07T21:27:05.705Z,64.77
2023-02-07T21:29:39.165Z,62.27
2023-02-07T21:32:11.586Z,77.40
2023-02-07T21:34:42.039Z,56.70
2023-02-07T21:37:12.306Z,51.93
2023-02-07T21:39:42.113Z,50.03
2023-02-07T21:42:14.435Z,48.37
2023-02-07T21:44:44.619Z,48.70
2023-02-07T21:47:14.784Z,47.47
2023-02-07T21:49:45.769Z,42.10
2023-02-07T21:52:18.417Z,54.92
2023-02-07T21:54:48.845Z,58.00
2023-02-07T21:57:21.123Z,56.40
2023-02-07T21:59:51.714Z,50.45
2023-02-07T22:02:22.061Z,44.50
2023-02-07T22:04:52.387Z,39.30
2023-02-07T22:07:23.115Z,44.13
2023-02-07T22:09:53.832Z,42.67
2023-02-07T22:12:26.333Z,40.28
2023-02-07T22:14:56.100Z,37.13
2023-02-07T22:17:26.127Z,38.40
2023-02-07T22:19:56.583Z,34.33
2023-02-07T22:22:27.359Z,38.55
2023-02-07T22:24:57.713Z,35.03
2023-02-07T22:27:29.355Z,40.40
2023-02-07T22:29:59.564Z,35.20
2023-02-07T22:32:30.106Z,39.20
2023-02-07T22:35:00.834Z,30.43
2023-02-07T22:37:31.923Z,35.40
2023-02-07T22:40:02.082Z,31.83
2023-02-07T22:42:35.388Z,31.50
2023-02-07T22:45:05.376Z,29.23
2023-02-07T22:47:36.355Z,36.23
2023-02-07T22:50:08.886Z,37.23
2023-02-07T22:52:38.955Z,32.87
2023-02-07T22:55:09.162Z,33.53
2023-02-07T22:57:42.218Z,33.35
2023-02-07T23:00:14.689Z,40.92
2023-02-07T23:02:45.703Z,50.90
2023-02-07T23:05:16.102Z,52.13
2023-02-07T23:07:48.674Z,45.47
2023-02-07T23:10:19.560Z,41.30
2023-02-07T23:12:51.249Z,46.60
2023-02-07T23:15:21.897Z,52.72
2023-02-07T23:17:52.336Z,48.78
2023-02-07T23:20:22.485Z,55.10
2023-02-07T23:22:53.241Z,46.47
2023-02-07T23:25:23.763Z,47.70
2023-02-07T23:27:56.294Z,48.00
2023-02-07T23:30:27.081Z,48.53
2023-02-07T23:32:57.398Z,45.03
2023-02-07T23:35:27.806Z,36.65
2023-02-07T23:37:58.278Z,38.30
2023-02-07T23:40:29.036Z,35.38
2023-02-07T23:43:02.303Z,34.40
2023-02-07T23:45:32.980Z,37.35
2023-02-07T23:48:04.655Z,33.70
2023-02-07T23:50:35.179Z,48.28
2023-02-07T23:53:05.943Z,34.08
2023-02-07T23:55:36.072Z,28.80
2023-02-07T23:58:09.313Z,36.83
